.
WxDataArchive / Data Records for 2015-03-23
2015-03-22 March 2015 2015-03-24

Data Records for Monday, 23 March 2015

Time	Temp	Chill	HIndex	Humid	Dewpt	 Wind 	HiWind	WindDir	Rain 	Barom
-----	----	-----	------	-----	-----	------	------	-------	-----	-----
00:00	33.8	33.8	33.8	49	16.7	0	2	90	0.00	30.243 
00:05	33.8	33.8	33.8	49	16.7	0	1	90	0.00	30.243 
00:10	33.8	33.8	33.8	49	16.7	0	2	90	0.00	30.243 
00:15	33.8	33.8	33.8	50	17.2	0	1	90	0.00	30.243 
00:20	33.8	33.8	33.8	49	16.7	0	2	90	0.00	30.243 
00:25	33.8	33.8	33.8	50	17.2	0	2	90	0.00	30.243 
00:30	33.7	33.7	33.7	49	16.6	0	1	90	0.00	30.243 
00:35	33.7	33.7	33.7	50	17.1	0	1	90	0.00	30.243 
00:40	33.7	33.7	33.7	51	17.5	1	3	90	0.00	30.243 
00:45	33.7	33.7	33.7	51	17.5	1	3	90	0.00	30.245 
00:50	33.5	33.5	33.5	52	17.8	1	2	90	0.00	30.245 
00:55	33.5	33.5	33.5	52	17.8	1	3	90	0.00	30.245 
01:00	33.4	33.4	33.4	52	17.7	1	3	90	0.00	30.251 
01:05	33.4	33.4	33.4	52	17.7	1	3	90	0.00	30.251 
01:10	33.4	33.4	33.4	52	17.7	0	2	90	0.00	30.251 
01:15	33.2	33.2	33.2	53	17.9	0	3	90	0.00	30.246 
01:20	33.1	33.1	33.1	53	17.9	1	4	112	0.00	30.246 
01:25	32.9	32.9	32.9	54	18.1	1	4	112	0.00	30.246 
01:30	32.8	32.8	32.8	54	18.0	1	3	68	0.00	30.247 
01:35	32.8	32.8	32.8	54	18.0	2	6	90	0.00	30.247 
01:40	32.7	32.7	32.7	55	18.3	1	4	90	0.00	30.247 
01:45	32.5	32.5	32.5	55	18.2	2	6	90	0.00	30.249 
01:50	32.5	32.5	32.5	56	18.6	2	5	112	0.00	30.249 
01:55	32.4	32.4	32.4	57	18.9	2	7	112	0.00	30.249 
02:00	32.4	32.4	32.4	58	19.3	1	4	90	0.00	30.248 
02:05	32.2	32.2	32.2	58	19.1	2	5	112	0.00	30.248 
02:10	32.1	32.1	32.1	59	19.4	2	5	90	0.00	30.248 
02:15	32.1	32.1	32.1	59	19.4	2	4	90	0.00	30.250 
02:20	31.9	31.9	31.9	60	19.6	2	5	90	0.00	30.250 
02:25	31.9	31.9	31.9	61	20.0	3	7	90	0.00	30.250 
02:30	31.8	31.8	31.8	61	19.9	2	5	90	0.00	30.241 
02:35	31.8	31.8	31.8	62	20.3	0	2	90	0.00	30.241 
02:40	31.6	31.6	31.6	63	20.5	2	5	90	0.00	30.241 
02:45	31.5	31.5	31.5	64	20.7	2	5	90	0.00	30.236 
02:50	31.5	31.5	31.5	64	20.7	2	6	112	0.00	30.236 
02:55	31.3	31.3	31.3	65	20.9	3	6	112	0.00	30.236 
03:00	31.3	31.3	31.3	65	20.9	2	4	112	0.00	30.238 
03:05	31.2	31.2	31.2	65	20.8	1	4	112	0.00	30.238 
03:10	31.2	31.2	31.2	65	20.8	1	3	112	0.00	30.238 
03:15	31.2	31.2	31.2	66	21.2	1	4	112	0.00	30.244 
03:20	31.2	31.2	31.2	66	21.2	1	5	112	0.00	30.244 
03:25	31.2	31.2	31.2	66	21.2	2	5	90	0.00	30.244 
03:30	31.0	31.0	31.0	66	21.0	1	4	90	0.00	30.241 
03:35	31.0	31.0	31.0	66	21.0	1	3	90	0.00	30.241 
03:40	31.0	31.0	31.0	66	21.0	1	3	90	0.00	30.241 
03:45	31.0	31.0	31.0	66	21.0	1	2	90	0.00	30.248 
03:50	30.9	30.9	30.9	66	20.9	1	4	90	0.00	30.248 
03:55	30.9	30.9	30.9	66	20.9	1	3	90	0.00	30.248 
04:00	30.9	30.9	30.9	66	20.9	1	3	90	0.00	30.251 
04:05	30.7	30.7	30.7	66	20.7	0	1	90	0.00	30.251 
04:10	30.7	30.7	30.7	67	21.1	0	2	90	0.00	30.251 
04:15	30.6	30.6	30.6	66	20.6	0	0	---	0.00	30.246 
04:20	30.6	30.6	30.6	67	21.0	0	1	90	0.00	30.246 
04:25	30.6	30.6	30.6	67	21.0	0	1	90	0.00	30.246 
04:30	30.4	30.4	30.4	66	20.4	0	0	---	0.00	30.256 
04:35	30.4	30.4	30.4	66	20.4	0	0	---	0.00	30.256 
04:40	30.4	30.4	30.4	66	20.4	0	2	90	0.00	30.256 
04:45	30.4	30.4	30.4	66	20.4	0	2	90	0.00	30.251 
04:50	30.4	30.4	30.4	65	20.1	0	1	90	0.00	30.251 
04:55	30.3	30.3	30.3	66	20.3	0	1	90	0.00	30.251 
05:00	30.3	30.3	30.3	65	20.0	0	2	90	0.00	30.245 
05:05	30.3	30.3	30.3	64	19.6	1	3	90	0.00	30.245 
05:10	30.3	30.3	30.3	64	19.6	0	2	90	0.00	30.245 
05:15	30.3	30.3	30.3	65	20.0	1	4	90	0.00	30.240 
05:20	30.3	30.3	30.3	65	20.0	0	3	90	0.00	30.240 
05:25	30.3	30.3	30.3	65	20.0	0	3	90	0.00	30.240 
05:30	30.1	30.1	30.1	65	19.8	1	5	90	0.00	30.230 
05:35	30.1	30.1	30.1	64	19.4	2	6	112	0.00	30.230 
05:40	30.0	30.0	30.0	64	19.3	2	5	90	0.00	30.230 
05:45	30.0	30.0	30.0	63	19.0	2	5	90	0.00	30.234 
05:50	30.0	30.0	30.0	63	19.0	2	4	90	0.00	30.234 
05:55	30.0	30.0	30.0	65	19.7	1	3	90	0.00	30.234 
06:00	29.8	29.8	29.8	64	19.1	3	7	112	0.00	30.226 
06:05	29.8	29.8	29.8	65	19.5	1	7	90	0.00	30.226 
06:10	29.8	29.8	29.8	65	19.5	2	4	90	0.00	30.226 
06:15	29.7	29.7	29.7	65	19.4	2	5	90	0.00	30.228 
06:20	29.7	29.7	29.7	65	19.4	2	5	90	0.00	30.228 
06:25	29.7	29.7	29.7	65	19.4	2	6	90	0.00	30.228 
06:30	29.5	29.5	29.5	66	19.6	1	4	90	0.00	30.228 
06:35	29.5	29.5	29.5	66	19.6	1	5	90	0.00	30.228 
06:40	29.5	29.5	29.5	66	19.6	2	5	112	0.00	30.228 
06:45	29.4	29.4	29.4	62	18.0	3	7	90	0.00	30.232 
06:50	29.5	29.5	29.5	62	18.1	2	5	90	0.00	30.232 
06:55	29.5	29.5	29.5	61	17.7	2	6	90	0.00	30.232 
07:00	29.4	29.4	29.4	61	17.6	1	5	112	0.00	30.232 
07:05	29.4	29.4	29.4	60	17.3	3	7	90	0.00	30.232 
07:10	29.3	29.3	29.3	61	17.5	3	6	90	0.00	30.232 
07:15	29.3	29.3	29.3	61	17.5	2	5	90	0.00	30.242 
07:20	29.4	29.4	29.4	62	18.0	2	4	90	0.00	30.242 
07:25	29.4	29.4	29.4	61	17.6	3	9	90	0.00	30.242 
07:30	29.4	29.4	29.4	61	17.6	3	9	90	0.00	30.234 
07:35	29.3	29.3	29.3	60	17.2	3	10	90	0.00	30.234 
07:40	29.3	29.3	29.3	60	17.2	2	4	90	0.00	30.234 
07:45	29.4	29.4	29.4	60	17.3	3	6	90	0.00	30.239 
07:50	29.4	29.4	29.4	60	17.3	1	4	90	0.00	30.239 
07:55	29.4	29.4	29.4	59	16.9	2	5	90	0.00	30.239 
08:00	29.4	29.4	29.4	59	16.9	3	5	90	0.00	30.249 
08:05	29.4	29.4	29.4	58	16.5	2	7	90	0.00	30.249 
08:10	29.4	29.4	29.4	59	16.9	2	5	90	0.00	30.249 
08:15	29.4	29.4	29.4	58	16.5	3	6	90	0.00	30.255 
08:20	29.4	29.4	29.4	59	16.9	3	6	112	0.00	30.255 
08:25	29.4	29.4	29.4	58	16.5	3	7	90	0.00	30.255 
08:30	29.4	29.4	29.4	58	16.5	3	6	90	0.00	30.260 
08:35	29.4	29.4	29.4	58	16.5	3	7	68	0.00	30.260 
08:40	29.4	29.4	29.4	58	16.5	2	6	90	0.00	30.260 
08:45	29.4	25.1	29.4	58	16.5	4	9	90	0.00	30.251 
08:50	29.5	29.5	29.5	57	16.2	3	9	90	0.00	30.251 
08:55	29.5	29.5	29.5	57	16.2	1	6	90	0.00	30.251 
09:00	29.5	29.5	29.5	57	16.2	2	6	90	0.00	30.261 
09:05	29.5	29.5	29.5	57	16.2	2	5	90	0.00	30.261 
09:10	29.7	29.7	29.7	56	15.9	3	6	90	0.00	30.261 
09:15	29.7	29.7	29.7	56	15.9	2	5	90	0.00	30.275 
09:20	29.7	29.7	29.7	55	15.5	3	7	90	0.00	30.275 
09:25	29.5	29.5	29.5	55	15.3	3	7	90	0.00	30.275 
09:30	29.7	29.7	29.7	56	15.9	2	5	112	0.00	30.276 
09:35	29.7	29.7	29.7	57	16.4	1	4	112	0.00	30.276 
09:40	29.7	29.7	29.7	57	16.4	1	6	112	0.00	30.276 
09:45	29.7	29.7	29.7	59	17.1	1	6	90	0.00	30.277 
09:50	29.7	29.7	29.7	61	17.9	1	6	90	0.00	30.277 
09:55	29.7	29.7	29.7	62	18.3	2	6	112	0.00	30.277 
10:00	29.7	29.7	29.7	61	17.9	2	6	112	0.00	30.278 
10:05	29.5	29.5	29.5	61	17.7	1	6	112	0.00	30.278 
10:10	29.5	29.5	29.5	61	17.7	1	4	112	0.00	30.278 
10:15	29.5	29.5	29.5	61	17.7	1	5	90	0.00	30.295 
10:20	29.5	29.5	29.5	60	17.3	2	6	90	0.00	30.295 
10:25	29.5	29.5	29.5	56	15.8	3	7	90	0.00	30.295 
10:30	29.5	29.5	29.5	58	16.6	2	5	90	0.00	30.293 
10:35	29.5	29.5	29.5	59	17.0	1	3	68	0.00	30.293 
10:40	29.5	29.5	29.5	60	17.3	1	5	90	0.00	30.293 
10:45	29.5	29.5	29.5	60	17.3	2	6	90	0.00	30.295 
10:50	29.5	29.5	29.5	60	17.3	1	5	90	0.00	30.295 
10:55	29.4	29.4	29.4	58	16.5	3	10	112	0.00	30.295 
11:00	29.3	29.3	29.3	61	17.5	3	12	68	0.00	30.289 
11:05	29.0	29.0	29.0	64	18.4	3	10	112	0.00	30.289 
11:10	28.5	28.5	28.5	69	19.6	3	8	90	0.00	30.289 
11:15	28.1	28.1	28.1	72	20.3	3	10	90	0.00	30.292 
11:20	27.6	27.6	27.6	75	20.7	3	8	112	0.00	30.292 
11:25	27.3	27.3	27.3	77	21.1	3	8	90	0.00	30.292 
11:30	27.3	27.3	27.3	77	21.1	3	6	90	0.00	30.293 
11:35	27.2	22.5	27.2	77	21.0	4	11	90	0.00	30.293 
11:40	27.2	21.4	27.2	77	21.0	5	9	90	0.00	30.293 
11:45	27.3	27.3	27.3	77	21.1	3	7	90	0.00	30.289 
11:50	27.5	27.5	27.5	77	21.3	3	11	112	0.00	30.289 
11:55	27.6	27.6	27.6	76	21.0	3	7	90	0.00	30.289 
12:00	27.8	23.2	27.8	76	21.2	4	9	90	0.00	30.282 
12:05	27.8	23.2	27.8	76	21.2	4	7	90	0.00	30.282 
12:10	27.8	22.1	27.8	75	20.9	5	11	90	0.00	30.282 
12:15	27.8	27.8	27.8	76	21.2	3	7	90	0.00	30.280 
12:20	27.8	23.2	27.8	76	21.2	4	9	90	0.00	30.280 
12:25	27.9	27.9	27.9	75	21.0	3	10	90	0.00	30.280 
12:30	28.1	28.1	28.1	74	20.9	3	7	90	0.00	30.278 
12:35	27.9	23.3	27.9	73	20.4	4	7	90	0.00	30.278 
12:40	27.8	22.1	27.8	73	20.3	5	11	90	0.00	30.278 
12:45	27.6	21.9	27.6	75	20.7	5	9	90	0.00	30.280 
12:50	27.3	21.6	27.3	78	21.4	5	10	90	0.00	30.280 
12:55	27.0	22.3	27.0	81	22.0	4	9	90	0.00	30.280 
13:00	26.7	26.7	26.7	83	22.2	3	9	68	0.00	30.278 
13:05	26.6	20.7	26.6	84	22.4	5	11	90	0.00	30.278 
13:10	26.3	21.5	26.3	85	22.4	4	11	90	0.00	30.278 
13:15	26.1	21.3	26.1	86	22.5	4	8	90	0.00	30.272 
13:20	26.0	21.1	26.0	87	22.7	4	11	112	0.00	30.272 
13:25	26.0	21.1	26.0	88	22.9	4	8	90	0.00	30.272 
13:30	26.0	26.0	26.0	88	22.9	2	5	90	0.00	30.282 
13:35	26.0	26.0	26.0	88	22.9	3	6	90	0.00	30.282 
13:40	26.0	26.0	26.0	88	22.9	3	6	90	0.00	30.282 
13:45	26.1	26.1	26.1	89	23.3	3	6	90	0.00	30.270 
13:50	26.3	26.3	26.3	89	23.5	3	5	90	0.00	30.270 
13:55	26.3	21.5	26.3	89	23.5	4	7	90	0.00	30.270 
14:00	26.4	26.4	26.4	90	23.9	3	7	90	0.00	30.267 
14:05	26.6	26.6	26.6	90	24.1	3	8	112	0.00	30.267 
14:10	26.6	21.8	26.6	90	24.1	4	9	90	0.00	30.267 
14:15	26.6	26.6	26.6	90	24.1	3	9	90	0.00	30.267 
14:20	26.4	21.6	26.4	90	23.9	4	11	90	0.00	30.267 
14:25	26.4	21.6	26.4	91	24.1	4	10	90	0.00	30.267 
14:30	26.4	26.4	26.4	91	24.1	3	9	90	0.00	30.264 
14:35	26.4	21.6	26.4	91	24.1	4	10	90	0.00	30.264 
14:40	26.4	26.4	26.4	91	24.1	3	13	112	0.00	30.264 
14:45	26.4	21.6	26.4	91	24.1	4	10	90	0.00	30.264 
14:50	26.4	26.4	26.4	91	24.1	2	7	90	0.00	30.264 
14:55	26.6	26.6	26.6	91	24.3	3	8	90	0.00	30.264 
15:00	26.6	21.8	26.6	91	24.3	4	9	90	0.00	30.257 
15:05	26.7	22.0	26.7	92	24.7	4	10	112	0.00	30.257 
15:10	26.7	22.0	26.7	92	24.7	4	7	112	0.00	30.257 
15:15	26.7	22.0	26.7	92	24.7	4	10	112	0.00	30.247 
15:20	26.4	20.5	26.4	92	24.4	5	11	90	0.00	30.247 
15:25	26.6	21.8	26.6	92	24.6	4	11	112	0.00	30.247 
15:30	26.6	21.8	26.6	92	24.6	4	7	90	0.00	30.249 
15:35	26.6	21.8	26.6	92	24.6	4	7	90	0.00	30.249 
15:40	26.7	26.7	26.7	92	24.7	3	6	90	0.00	30.249 
15:45	26.9	22.2	26.9	92	24.9	4	11	90	0.00	30.238 
15:50	27.0	21.2	27.0	92	25.0	5	12	90	0.00	30.238 
15:55	27.2	22.5	27.2	92	25.2	4	7	90	0.00	30.238 
16:00	27.2	22.5	27.2	92	25.2	4	9	90	0.00	30.239 
16:05	27.3	27.3	27.3	92	25.3	3	7	90	0.00	30.239 
16:10	27.5	22.9	27.5	92	25.5	4	9	90	0.00	30.239 
16:15	27.5	22.9	27.5	92	25.5	4	7	112	0.00	30.242 
16:20	27.5	27.5	27.5	92	25.5	3	9	90	0.00	30.242 
16:25	27.5	22.9	27.5	92	25.5	4	10	90	0.00	30.242 
16:30	27.5	21.8	27.5	92	25.5	5	11	112	0.00	30.248 
16:35	27.3	21.6	27.3	92	25.3	5	10	112	0.00	30.248 
16:40	27.3	22.6	27.3	92	25.3	4	11	112	0.00	30.248 
16:45	27.2	20.5	27.2	92	25.2	6	11	90	0.00	30.248 
16:50	27.2	22.5	27.2	91	24.9	4	10	90	0.00	30.248 
16:55	27.2	22.5	27.2	91	24.9	4	9	90	0.00	30.248 
17:00	27.2	22.5	27.2	91	24.9	4	9	90	0.00	30.249 
17:05	27.2	22.5	27.2	91	24.9	4	9	90	0.00	30.249 
17:10	27.3	27.3	27.3	91	25.0	3	6	90	0.00	30.249 
17:15	27.3	22.6	27.3	91	25.0	4	9	90	0.00	30.249 
17:20	27.3	22.6	27.3	91	25.0	4	9	90	0.00	30.249 
17:25	27.3	27.3	27.3	91	25.0	3	7	90	0.00	30.249 
17:30	27.5	27.5	27.5	91	25.2	3	11	90	0.00	30.256 
17:35	27.5	27.5	27.5	91	25.2	3	6	90	0.00	30.256 
17:40	27.5	27.5	27.5	91	25.2	1	5	68	0.00	30.256 
17:45	27.6	27.6	27.6	91	25.3	3	6	90	0.00	30.252 
17:50	27.6	27.6	27.6	91	25.3	1	6	90	0.00	30.252 
17:55	27.6	27.6	27.6	91	25.3	1	3	90	0.00	30.252 
18:00	27.8	27.8	27.8	91	25.5	1	4	90	0.00	30.253 
18:05	27.8	27.8	27.8	91	25.5	2	6	90	0.00	30.253 
18:10	27.6	23.0	27.6	91	25.3	4	8	112	0.00	30.253 
18:15	27.6	27.6	27.6	91	25.3	3	9	90	0.00	30.253 
18:20	27.5	22.9	27.5	91	25.2	4	7	90	0.00	30.253 
18:25	27.3	27.3	27.3	91	25.0	3	9	90	0.00	30.253 
18:30	27.2	27.2	27.2	91	24.9	3	6	90	0.00	30.253 
18:35	27.2	27.2	27.2	92	25.2	3	6	90	0.00	30.253 
18:40	27.2	27.2	27.2	92	25.2	3	10	90	0.00	30.253 
18:45	27.0	27.0	27.0	91	24.7	3	11	90	0.00	30.256 
18:50	26.7	22.0	26.7	91	24.4	4	10	112	0.00	30.256 
18:55	26.6	21.8	26.6	91	24.3	4	10	90	0.00	30.256 
19:00	26.6	26.6	26.6	91	24.3	3	7	112	0.00	30.266 
19:05	26.6	26.6	26.6	91	24.3	3	9	112	0.00	30.266 
19:10	26.6	26.6	26.6	91	24.3	3	7	112	0.00	30.266 
19:15	26.6	26.6	26.6	91	24.3	3	9	90	0.00	30.266 
19:20	26.6	26.6	26.6	91	24.3	2	5	90	0.00	30.266 
19:25	26.6	26.6	26.6	91	24.3	2	4	90	0.00	30.266 
19:30	26.6	26.6	26.6	91	24.3	1	6	90	0.00	30.268 
19:35	26.6	26.6	26.6	91	24.3	3	9	90	0.00	30.268 
19:40	26.6	21.8	26.6	91	24.3	4	10	90	0.00	30.268 
19:45	26.4	26.4	26.4	90	23.9	3	10	90	0.00	30.273 
19:50	26.3	26.3	26.3	90	23.8	3	10	90	0.00	30.273 
19:55	26.3	26.3	26.3	90	23.8	2	6	90	0.00	30.273 
20:00	26.3	26.3	26.3	90	23.8	3	8	90	0.00	30.278 
20:05	26.3	26.3	26.3	90	23.8	1	5	45	0.00	30.278 
20:10	26.3	26.3	26.3	90	23.8	1	5	68	0.00	30.278 
20:15	26.3	26.3	26.3	90	23.8	1	4	90	0.00	30.280 
20:20	26.3	21.5	26.3	90	23.8	4	12	90	0.00	30.280 
20:25	26.0	26.0	26.0	89	23.2	3	7	112	0.00	30.280 
20:30	25.8	25.8	25.8	88	22.7	3	10	112	0.00	30.283 
20:35	25.8	20.9	25.8	88	22.7	4	10	90	0.00	30.283 
20:40	25.7	25.7	25.7	88	22.6	3	9	90	0.00	30.283 
20:45	25.7	25.7	25.7	88	22.6	2	7	90	0.00	30.283 
20:50	25.7	25.7	25.7	88	22.6	2	7	112	0.00	30.283 
20:55	25.7	20.8	25.7	88	22.6	4	9	90	0.00	30.283 
21:00	25.7	25.7	25.7	88	22.6	3	7	90	0.00	30.282 
21:05	25.7	25.7	25.7	88	22.6	3	9	90	0.00	30.282 
21:10	25.6	25.6	25.6	88	22.5	3	7	90	0.00	30.282 
21:15	25.6	25.6	25.6	88	22.5	2	6	90	0.00	30.283 
21:20	25.6	25.6	25.6	88	22.5	2	6	112	0.00	30.283 
21:25	25.4	25.4	25.4	88	22.4	2	6	90	0.00	30.283 
21:30	25.4	25.4	25.4	88	22.4	2	4	90	0.00	30.283 
21:35	25.1	25.1	25.1	87	21.8	2	4	90	0.00	30.283 
21:40	25.0	25.0	25.0	87	21.7	2	5	90	0.00	30.283 
21:45	24.7	24.7	24.7	87	21.4	1	4	90	0.00	30.282 
21:50	24.4	24.4	24.4	87	21.1	1	6	90	0.00	30.282 
21:55	24.2	24.2	24.2	87	20.9	1	4	90	0.00	30.282 
22:00	24.1	24.1	24.1	87	20.8	1	3	90	0.00	30.286 
22:05	23.9	23.9	23.9	87	20.6	2	4	90	0.00	30.286 
22:10	23.8	23.8	23.8	87	20.5	1	4	90	0.00	30.286 
22:15	23.6	23.6	23.6	87	20.3	1	4	90	0.00	30.284 
22:20	23.6	23.6	23.6	87	20.3	2	6	90	0.00	30.284 
22:25	23.5	23.5	23.5	87	20.2	2	5	90	0.00	30.284 
22:30	23.3	23.3	23.3	87	20.0	1	4	90	0.00	30.280 
22:35	23.2	23.2	23.2	88	20.2	1	4	90	0.00	30.280 
22:40	23.2	23.2	23.2	88	20.2	0	2	90	0.00	30.280 
22:45	23.0	23.0	23.0	88	20.0	1	5	90	0.00	30.287 
22:50	23.0	23.0	23.0	88	20.0	0	2	90	0.00	30.287 
22:55	22.9	22.9	22.9	88	19.9	0	3	90	0.00	30.287 
23:00	22.7	22.7	22.7	88	19.7	0	2	90	0.00	30.291 
23:05	22.5	22.5	22.5	88	19.5	0	0	---	0.00	30.291 
23:10	22.2	22.2	22.2	88	19.2	0	1	90	0.00	30.291 
23:15	22.2	22.2	22.2	88	19.2	0	3	90	0.00	30.293 
23:20	22.1	22.1	22.1	88	19.1	1	3	90	0.00	30.293 
23:25	21.9	21.9	21.9	88	18.9	2	4	90	0.00	30.293 
23:30	21.8	21.8	21.8	88	18.8	1	3	90	0.00	30.282 
23:35	21.4	21.4	21.4	88	18.4	0	1	90	0.00	30.282 
23:40	21.3	21.3	21.3	88	18.3	0	1	90	0.00	30.282 
23:45	21.3	21.3	21.3	88	18.3	1	2	90	0.00	30.293 
23:50	21.1	21.1	21.1	88	18.1	0	1	90	0.00	30.293 
23:55	21.0	21.0	21.0	88	18.0	0	2	90	0.00	30.293 

CoCoRaHS
IN-AL-39
A2 Web Hosting
Creative Commons License
GoDaddy
search engine by freefind advanced

loaded 2018-11-13 17:30:23 • last modified 2010-11-18 10:43:29
Privacy PolicyDisclaimer
• wx.awcolley.com is powered by PmWiki v.2002016 •
• all content (unless otherwise noted) © 2018 A W Colley